createdAt,value
2022-09-26T00:01:19.692Z,99978.38
2022-09-26T00:03:56.554Z,99980.41
2022-09-26T00:06:23.850Z,99974.19
2022-09-26T00:08:50.809Z,99973.59
2022-09-26T00:11:24.232Z,99966.94
2022-09-26T00:13:56.515Z,99964.16
2022-09-26T00:16:23.451Z,99953.94
2022-09-26T00:18:51.484Z,99953.69
2022-09-26T00:21:18.702Z,99947.47
2022-09-26T00:23:45.854Z,99944.84
2022-09-26T00:26:17.590Z,99933.16
2022-09-26T00:28:44.031Z,99933.44
2022-09-26T00:31:14.347Z,99927.91
2022-09-26T00:33:40.797Z,99925.16
2022-09-26T00:36:07.379Z,99917.63
2022-09-26T00:38:34.291Z,99919.94
2022-09-26T00:41:01.635Z,99922.94
2022-09-26T00:43:40.007Z,99901.88
2022-09-26T00:46:19.832Z,99904.53
2022-09-26T00:48:51.885Z,99886.31
2022-09-26T00:51:18.468Z,99887.50
2022-09-26T00:53:48.166Z,99874.63
2022-09-26T00:56:25.244Z,99876.69
2022-09-26T00:58:55.837Z,99878.66
2022-09-26T01:01:22.604Z,99871.50
2022-09-26T01:03:50.757Z,99862.78
2022-09-26T01:06:18.171Z,99868.91
2022-09-26T01:08:50.970Z,99866.34
2022-09-26T01:11:17.531Z,99864.41
2022-09-26T01:13:45.084Z,99862.19
2022-09-26T01:16:11.542Z,99866.53
2022-09-26T01:18:38.097Z,99857.47
2022-09-26T01:21:16.501Z,99852.06
2022-09-26T01:23:57.743Z,99843.28
2022-09-26T01:26:28.161Z,99851.69
2022-09-26T01:29:21.267Z,99842.28
2022-09-26T01:32:07.807Z,99834.09
2022-09-26T01:34:58.459Z,99834.09
2022-09-26T01:37:55.577Z,99828.41
2022-09-26T01:40:42.203Z,99836.13
2022-09-26T01:43:31.856Z,99827.53
2022-09-26T01:46:28.925Z,99822.47
2022-09-26T01:49:00.354Z,99817.38
2022-09-26T01:51:33.388Z,99817.50
2022-09-26T01:54:10.620Z,99812.09
2022-09-26T01:56:39.558Z,99805.78
2022-09-26T01:59:22.719Z,99800.84
2022-09-26T02:01:51.597Z,99805.06
2022-09-26T02:04:22.205Z,99807.75
2022-09-26T02:06:57.995Z,99799.56
2022-09-26T02:09:35.377Z,99798.06
2022-09-26T02:12:06.386Z,99787.44
2022-09-26T02:14:36.283Z,99781.75
2022-09-26T02:17:11.775Z,99776.63
2022-09-26T02:19:58.862Z,99770.25
2022-09-26T02:22:34.270Z,99757.31
2022-09-26T02:25:02.330Z,99759.78
2022-09-26T02:27:29.090Z,99756.19
2022-09-26T02:29:55.785Z,99755.59
2022-09-26T02:32:29.204Z,99753.41
2022-09-26T02:34:56.389Z,99752.59
2022-09-26T02:37:23.877Z,99755.09
2022-09-26T02:39:52.047Z,99747.88
2022-09-26T02:42:36.669Z,99743.56
2022-09-26T02:45:15.330Z,99739.47
2022-09-26T02:48:04.201Z,99719.66
2022-09-26T02:50:56.794Z,99723.06
2022-09-26T02:53:41.898Z,99717.94
2022-09-26T02:56:18.911Z,99713.84
2022-09-26T02:59:03.334Z,99706.13
2022-09-26T03:01:48.909Z,99703.00
2022-09-26T03:04:27.788Z,99697.28
2022-09-26T03:06:57.831Z,99695.78
2022-09-26T03:09:26.827Z,99690.00
2022-09-26T03:11:54.648Z,99687.88
2022-09-26T03:14:21.138Z,99690.09
2022-09-26T03:16:49.377Z,99688.09
2022-09-26T03:19:30.536Z,99686.75
2022-09-26T03:21:57.499Z,99679.47
2022-09-26T03:24:24.709Z,99667.13
2022-09-26T03:26:51.212Z,99670.22
2022-09-26T03:29:18.847Z,99664.25
2022-09-26T03:31:45.347Z,99655.59
2022-09-26T03:34:11.801Z,99649.50
2022-09-26T03:36:38.535Z,99639.06
2022-09-26T03:39:05.254Z,99642.44
2022-09-26T03:41:31.575Z,99637.53
2022-09-26T03:43:57.884Z,99637.09
2022-09-26T03:46:24.223Z,99632.91
2022-09-26T03:48:50.599Z,99640.84
2022-09-26T03:51:17.502Z,99640.13
2022-09-26T03:53:45.430Z,99638.13
2022-09-26T03:56:14.495Z,99627.47
2022-09-26T03:58:42.391Z,99622.06
2022-09-26T04:01:11.694Z,99614.03
2022-09-26T04:03:40.310Z,99615.16
2022-09-26T04:06:08.673Z,99609.63
2022-09-26T04:08:37.770Z,99598.41
2022-09-26T04:11:06.821Z,99591.41
2022-09-26T04:13:50.676Z,99590.03
2022-09-26T04:16:18.797Z,99592.31
2022-09-26T04:18:45.364Z,99587.22
2022-09-26T04:21:13.175Z,99581.06
2022-09-26T04:23:41.343Z,99583.50
2022-09-26T04:26:17.522Z,99579.09
2022-09-26T04:28:47.352Z,99571.00
2022-09-26T04:31:13.763Z,99564.03
2022-09-26T04:33:40.650Z,99563.28
2022-09-26T04:36:10.472Z,99558.88
2022-09-26T04:38:37.287Z,99552.97
2022-09-26T04:41:04.826Z,99545.63
2022-09-26T04:43:31.419Z,99538.69
2022-09-26T04:45:57.926Z,99528.66
2022-09-26T04:48:24.725Z,99526.75
2022-09-26T04:50:51.268Z,99514.78
2022-09-26T04:53:17.641Z,99516.41
2022-09-26T04:55:45.603Z,99515.47
2022-09-26T04:58:12.218Z,99510.78
2022-09-26T05:00:47.779Z,99505.09
2022-09-26T05:03:15.392Z,99506.66
2022-09-26T05:05:43.217Z,99507.97
2022-09-26T05:08:09.617Z,99502.41
2022-09-26T05:10:36.021Z,99497.00
2022-09-26T05:13:02.314Z,99493.63
2022-09-26T05:15:29.479Z,99491.50
2022-09-26T05:18:01.042Z,99484.13
2022-09-26T05:20:27.834Z,99486.34
2022-09-26T05:22:56.813Z,99492.56
2022-09-26T05:25:23.187Z,99485.88
2022-09-26T05:27:50.446Z,99486.88
2022-09-26T05:30:16.909Z,99482.25
2022-09-26T05:32:43.232Z,99480.06
2022-09-26T05:35:09.577Z,99478.25
2022-09-26T05:37:35.930Z,99481.59
2022-09-26T05:40:02.281Z,99470.88
2022-09-26T05:42:28.614Z,99472.84
2022-09-26T05:44:54.928Z,99471.59
2022-09-26T05:47:21.259Z,99463.63
2022-09-26T05:49:47.557Z,99469.03
2022-09-26T05:52:13.892Z,99473.53
2022-09-26T05:54:40.301Z,99474.22
2022-09-26T05:57:06.636Z,99464.81
2022-09-26T05:59:32.968Z,99466.44
2022-09-26T06:01:59.569Z,99470.41
2022-09-26T06:04:26.022Z,99463.16
2022-09-26T06:06:52.330Z,99457.06
2022-09-26T06:09:18.666Z,99458.69
2022-09-26T06:11:45.025Z,99466.53
2022-09-26T06:14:11.318Z,99456.78
2022-09-26T06:16:37.737Z,99453.44
2022-09-26T06:19:04.188Z,99448.66
2022-09-26T06:21:30.520Z,99448.53
2022-09-26T06:23:56.962Z,99450.28
2022-09-26T06:26:26.147Z,99445.19
2022-09-26T06:28:57.439Z,99434.31
2022-09-26T06:31:23.863Z,99434.81
2022-09-26T06:33:51.127Z,99430.47
2022-09-26T06:36:17.452Z,99432.91
2022-09-26T06:38:43.785Z,99432.69
2022-09-26T06:41:10.105Z,99424.41
2022-09-26T06:43:36.725Z,99423.72
2022-09-26T06:46:05.578Z,99413.25
2022-09-26T06:48:31.934Z,99411.06
2022-09-26T06:50:58.271Z,99405.94
2022-09-26T06:53:24.639Z,99398.38
2022-09-26T06:55:51.002Z,99395.94
2022-09-26T06:58:17.438Z,99395.53
2022-09-26T07:00:43.909Z,99394.41
2022-09-26T07:03:10.606Z,99386.00
2022-09-26T07:05:36.957Z,99389.16
2022-09-26T07:08:03.411Z,99385.56
2022-09-26T07:10:29.779Z,99391.44
2022-09-26T07:13:04.145Z,99389.38
2022-09-26T07:15:31.654Z,99373.75
2022-09-26T07:17:57.999Z,99376.03
2022-09-26T07:20:24.421Z,99367.09
2022-09-26T07:22:50.735Z,99366.69
2022-09-26T07:25:17.029Z,99364.03
2022-09-26T07:27:43.423Z,99359.66
2022-09-26T07:30:10.146Z,99359.41
2022-09-26T07:32:36.515Z,99351.84
2022-09-26T07:35:03.383Z,99355.03
2022-09-26T07:37:30.695Z,99348.13
2022-09-26T07:40:01.223Z,99344.56
2022-09-26T07:42:28.098Z,99339.81
2022-09-26T07:45:20.835Z,99337.59
2022-09-26T07:47:40.779Z,99335.16
2022-09-26T07:50:07.450Z,99340.63
2022-09-26T07:52:33.828Z,99329.31
2022-09-26T07:55:00.156Z,99326.34
2022-09-26T07:57:26.497Z,99325.00
2022-09-26T07:59:52.811Z,99326.47
2022-09-26T08:02:24.465Z,99329.31
2022-09-26T08:04:51.648Z,99324.56
2022-09-26T08:07:17.961Z,99329.22
2022-09-26T08:09:44.360Z,99326.72
2022-09-26T08:12:10.693Z,99325.00
2022-09-26T08:14:37.113Z,99312.53
2022-09-26T08:17:03.910Z,99313.53
2022-09-26T08:19:30.306Z,99316.84
2022-09-26T08:21:56.689Z,99314.78
2022-09-26T08:24:23.058Z,99306.41
2022-09-26T08:26:49.402Z,99306.19
2022-09-26T08:29:15.835Z,99304.00
2022-09-26T08:31:42.380Z,99305.94
2022-09-26T08:34:08.995Z,99310.03
2022-09-26T08:36:35.410Z,99310.94
2022-09-26T08:39:01.735Z,99311.94
2022-09-26T08:41:52.580Z,99308.28
2022-09-26T08:44:39.884Z,99302.56
2022-09-26T08:47:18.403Z,99301.97
2022-09-26T08:50:11.218Z,99303.34
2022-09-26T08:52:52.148Z,99297.34
2022-09-26T08:55:25.887Z,99298.16
2022-09-26T08:58:14.563Z,99287.22
2022-09-26T09:00:41.433Z,99289.53
2022-09-26T09:03:10.600Z,99286.84
2022-09-26T09:05:43.012Z,99286.72
2022-09-26T09:08:18.966Z,99285.50
2022-09-26T09:11:14.402Z,99279.00
2022-09-26T09:14:11.018Z,99282.41
2022-09-26T09:16:54.709Z,99270.03
2022-09-26T09:19:30.125Z,99277.97
2022-09-26T09:22:25.840Z,99276.25
2022-09-26T09:25:09.600Z,99275.66
2022-09-26T09:28:05.560Z,99273.03
2022-09-26T09:30:43.467Z,99267.94
2022-09-26T09:33:36.298Z,99261.63
2022-09-26T09:36:11.384Z,99268.34
2022-09-26T09:38:42.457Z,99258.78
2022-09-26T09:41:17.600Z,99267.94
2022-09-26T09:43:53.750Z,99264.75
2022-09-26T09:46:29.453Z,99261.94
2022-09-26T09:49:08.074Z,99265.59
2022-09-26T09:52:09.679Z,99259.59
2022-09-26T09:55:04.329Z,99255.06
2022-09-26T09:57:54.917Z,99248.00
2022-09-26T10:00:23.557Z,99248.88
2022-09-26T10:03:15.656Z,99230.91
2022-09-26T10:05:45.897Z,99232.56
2022-09-26T10:08:20.716Z,99229.38
2022-09-26T10:10:54.633Z,99231.78
2022-09-26T10:13:24.846Z,99232.78
2022-09-26T10:16:20.862Z,99224.84
2022-09-26T10:19:05.950Z,99229.91
2022-09-26T10:21:37.290Z,99226.28
2022-09-26T10:24:03.998Z,99224.91
2022-09-26T10:26:33.331Z,99224.78
2022-09-26T10:29:02.225Z,99216.88
2022-09-26T10:31:38.599Z,99211.84
2022-09-26T10:34:23.236Z,99214.72
2022-09-26T10:36:49.588Z,99208.31
2022-09-26T10:39:19.683Z,99212.66
2022-09-26T10:41:47.186Z,99204.03
2022-09-26T10:44:25.459Z,99202.66
2022-09-26T10:46:54.535Z,99209.94
2022-09-26T10:49:27.049Z,99207.53
2022-09-26T10:52:08.371Z,99202.97
2022-09-26T10:54:42.223Z,99205.19
2022-09-26T10:57:19.476Z,99206.69
2022-09-26T10:59:48.285Z,99212.38
2022-09-26T11:02:20.539Z,99206.13
2022-09-26T11:04:47.494Z,99206.44
2022-09-26T11:07:22.992Z,99193.44
2022-09-26T11:09:49.349Z,99200.59
2022-09-26T11:12:27.837Z,99199.72
2022-09-26T11:14:59.682Z,99186.09
2022-09-26T11:17:42.871Z,99178.41
2022-09-26T11:20:13.822Z,99178.84
2022-09-26T11:22:53.784Z,99173.72
2022-09-26T11:25:27.763Z,99170.69
2022-09-26T11:28:15.809Z,99157.28
2022-09-26T11:30:46.980Z,99161.28
2022-09-26T11:33:14.767Z,99153.84
2022-09-26T11:36:13.768Z,99135.72
2022-09-26T11:38:50.232Z,99125.88
2022-09-26T11:41:51.681Z,99119.13
2022-09-26T11:44:28.374Z,99108.25
2022-09-26T11:47:30.766Z,99102.88
2022-09-26T11:50:27.334Z,99105.56
2022-09-26T11:53:13.843Z,99093.31
2022-09-26T11:56:14.265Z,99082.66
2022-09-26T11:58:46.991Z,99084.03
2022-09-26T12:01:39.800Z,99091.03
2022-09-26T12:04:19.118Z,99080.00
2022-09-26T12:06:56.269Z,99082.38
2022-09-26T12:09:45.833Z,99086.69
2022-09-26T12:12:41.129Z,99072.88
2022-09-26T12:15:36.715Z,99082.19
2022-09-26T12:18:08.924Z,99078.91
2022-09-26T12:20:45.171Z,99078.34
2022-09-26T12:23:29.813Z,99076.28
2022-09-26T12:26:05.166Z,99074.72
2022-09-26T12:28:42.668Z,99068.84
2022-09-26T12:31:54.127Z,99064.31
2022-09-26T12:34:51.031Z,99058.50
2022-09-26T12:37:36.112Z,99049.00
2022-09-26T12:40:26.024Z,99053.19
2022-09-26T12:43:22.047Z,99050.03
2022-09-26T12:46:14.713Z,99040.25
2022-09-26T12:48:53.282Z,99035.28
2022-09-26T12:51:29.857Z,99030.53
2022-09-26T12:54:12.095Z,99016.69
2022-09-26T12:57:15.778Z,99015.47
2022-09-26T12:59:57.030Z,99009.66
2022-09-26T13:02:39.450Z,99002.31
2022-09-26T13:05:14.733Z,99007.31
2022-09-26T13:07:40.989Z,98998.34
2022-09-26T13:10:32.187Z,98990.41
2022-09-26T13:13:01.550Z,98988.84
2022-09-26T13:15:48.239Z,98989.72
2022-09-26T13:18:24.281Z,98983.25
2022-09-26T13:20:59.998Z,98975.88
2022-09-26T13:23:37.745Z,98976.72
2022-09-26T13:26:11.394Z,98969.34
2022-09-26T13:29:12.850Z,98965.97
2022-09-26T13:31:37.183Z,98959.47
2022-09-26T13:34:29.251Z,98962.13
2022-09-26T13:36:59.106Z,98957.88
2022-09-26T13:39:29.868Z,98946.44
2022-09-26T13:42:20.875Z,98942.13
2022-09-26T13:45:16.223Z,98942.47
2022-09-26T13:47:54.130Z,98938.69
2022-09-26T13:50:35.864Z,98931.03
2022-09-26T13:53:14.395Z,98932.81
2022-09-26T13:55:41.056Z,98930.25
2022-09-26T13:58:20.851Z,98933.59
2022-09-26T14:00:47.874Z,98926.72
2022-09-26T14:03:14.306Z,98934.31
2022-09-26T14:05:43.652Z,98932.28
2022-09-26T14:08:22.104Z,98926.38
2022-09-26T14:10:53.232Z,98920.03
2022-09-26T14:13:33.330Z,98924.97
2022-09-26T14:16:02.976Z,98923.13
2022-09-26T14:18:41.829Z,98920.41
2022-09-26T14:21:10.953Z,98913.75
2022-09-26T14:23:41.901Z,98910.84
2022-09-26T14:26:40.866Z,98908.22
2022-09-26T14:29:46.597Z,98910.41
2022-09-26T14:32:21.375Z,98907.44
2022-09-26T14:34:53.422Z,98909.28
2022-09-26T14:37:29.484Z,98909.91
2022-09-26T14:40:10.803Z,98896.91
2022-09-26T14:42:43.166Z,98908.13
2022-09-26T14:45:44.972Z,98897.63
2022-09-26T14:48:11.273Z,98898.59
2022-09-26T14:50:55.559Z,98893.50
2022-09-26T14:53:32.081Z,98892.69
2022-09-26T14:56:16.171Z,98880.88
2022-09-26T14:58:42.539Z,98878.53
2022-09-26T15:01:16.833Z,98873.41
2022-09-26T15:03:49.444Z,98872.88
2022-09-26T15:06:15.940Z,98865.25
2022-09-26T15:08:42.614Z,98861.38
2022-09-26T15:11:32.734Z,98855.41
2022-09-26T15:14:10.417Z,98854.53
2022-09-26T15:16:42.898Z,98864.66
2022-09-26T15:19:15.887Z,98850.63
2022-09-26T15:21:44.984Z,98862.00
2022-09-26T15:24:23.401Z,98858.66
2022-09-26T15:26:49.844Z,98853.13
2022-09-26T15:29:16.721Z,98848.50
2022-09-26T15:31:44.859Z,98842.56
2022-09-26T15:34:23.744Z,98837.84
2022-09-26T15:36:56.262Z,98838.38
2022-09-26T15:39:31.661Z,98839.97
2022-09-26T15:41:59.644Z,98828.69
2022-09-26T15:44:26.082Z,98822.69
2022-09-26T15:46:52.459Z,98826.09
2022-09-26T15:49:21.503Z,98822.47
2022-09-26T15:51:52.995Z,98814.34
2022-09-26T15:54:28.841Z,98809.28
2022-09-26T15:57:01.551Z,98806.94
2022-09-26T15:59:40.683Z,98806.47
2022-09-26T16:02:22.461Z,98796.06
2022-09-26T16:04:52.185Z,98803.66
2022-09-26T16:07:24.772Z,98793.88
2022-09-26T16:09:51.445Z,98789.00
2022-09-26T16:12:20.668Z,98787.34
2022-09-26T16:14:50.492Z,98782.78
2022-09-26T16:17:28.157Z,98774.31
2022-09-26T16:19:57.345Z,98778.28
2022-09-26T16:22:26.637Z,98768.19
2022-09-26T16:24:53.089Z,98775.44
2022-09-26T16:27:24.904Z,98770.44
2022-09-26T16:29:52.340Z,98760.25
2022-09-26T16:32:20.926Z,98761.53
2022-09-26T16:34:48.715Z,98767.53
2022-09-26T16:37:20.557Z,98763.16
2022-09-26T16:39:57.220Z,98756.03
2022-09-26T16:42:27.350Z,98753.44
2022-09-26T16:44:54.001Z,98750.41
2022-09-26T16:47:31.592Z,98747.81
2022-09-26T16:50:25.280Z,98746.31
2022-09-26T16:52:51.846Z,98749.97
2022-09-26T16:55:18.271Z,98755.41
2022-09-26T16:57:56.551Z,98754.06
2022-09-26T17:00:25.577Z,98749.97
2022-09-26T17:02:51.989Z,98745.44
2022-09-26T17:05:21.421Z,98750.78
2022-09-26T17:07:49.515Z,98745.00
2022-09-26T17:10:17.737Z,98739.59
2022-09-26T17:12:44.312Z,98726.81
2022-09-26T17:15:17.531Z,98729.63
2022-09-26T17:17:43.884Z,98731.41
2022-09-26T17:20:13.175Z,98736.31
2022-09-26T17:22:39.497Z,98739.56
2022-09-26T17:25:06.458Z,98730.41
2022-09-26T17:27:33.019Z,98733.91
2022-09-26T17:30:01.582Z,98727.81
2022-09-26T17:32:33.897Z,98734.25
2022-09-26T17:35:12.927Z,98715.81
2022-09-26T17:37:39.886Z,98719.78
2022-09-26T17:40:12.716Z,98717.97
2022-09-26T17:42:39.056Z,98711.28
2022-09-26T17:45:05.947Z,98713.53
2022-09-26T17:47:32.287Z,98722.47
2022-09-26T17:49:59.149Z,98715.91
2022-09-26T17:52:31.419Z,98711.03
2022-09-26T17:55:07.359Z,98708.63
2022-09-26T17:57:38.227Z,98705.38
2022-09-26T18:00:08.880Z,98712.72
2022-09-26T18:02:50.792Z,98705.34
2022-09-26T18:05:20.522Z,98703.31
2022-09-26T18:07:50.671Z,98705.16
2022-09-26T18:10:20.288Z,98695.97
2022-09-26T18:12:54.649Z,98692.00
2022-09-26T18:15:20.953Z,98693.72
2022-09-26T18:17:48.225Z,98689.53
2022-09-26T18:20:14.611Z,98682.97
2022-09-26T18:22:40.969Z,98675.72
2022-09-26T18:25:11.549Z,98670.88
2022-09-26T18:27:38.236Z,98668.97
2022-09-26T18:30:05.463Z,98678.22
2022-09-26T18:32:35.955Z,98670.78
2022-09-26T18:35:02.506Z,98674.38
2022-09-26T18:37:28.862Z,98671.00
2022-09-26T18:39:58.986Z,98667.59
2022-09-26T18:42:27.830Z,98667.16
2022-09-26T18:45:02.546Z,98666.59
2022-09-26T18:47:30.054Z,98661.97
2022-09-26T18:49:56.465Z,98659.25
2022-09-26T18:52:22.803Z,98661.50
2022-09-26T18:54:49.162Z,98661.28
2022-09-26T18:57:15.506Z,98661.06
2022-09-26T18:59:41.826Z,98660.81
2022-09-26T19:02:20.630Z,98653.72
2022-09-26T19:04:47.259Z,98648.81
2022-09-26T19:07:18.662Z,98649.06
2022-09-26T19:09:47.332Z,98647.72
2022-09-26T19:12:14.825Z,98644.31
2022-09-26T19:14:41.178Z,98640.47
2022-09-26T19:17:07.496Z,98643.63
2022-09-26T19:19:33.863Z,98640.47
2022-09-26T19:22:20.473Z,98636.41
2022-09-26T19:24:56.954Z,98634.47
2022-09-26T19:27:26.532Z,98633.91
2022-09-26T19:30:17.199Z,98628.25
2022-09-26T19:32:46.933Z,98618.88
2022-09-26T19:35:29.717Z,98625.09
2022-09-26T19:37:56.880Z,98624.28
2022-09-26T19:40:24.439Z,98620.34
2022-09-26T19:42:51.516Z,98622.06
2022-09-26T19:45:19.441Z,98612.91
2022-09-26T19:47:48.824Z,98615.03
2022-09-26T19:50:17.748Z,98611.22
2022-09-26T19:52:44.654Z,98607.81
2022-09-26T19:55:20.926Z,98607.16
2022-09-26T19:57:47.274Z,98595.50
2022-09-26T20:00:14.153Z,98595.06
2022-09-26T20:02:40.721Z,98595.94
2022-09-26T20:05:25.330Z,98591.53
2022-09-26T20:07:52.723Z,98595.38
2022-09-26T20:10:22.008Z,98594.59
2022-09-26T20:12:48.755Z,98586.69
2022-09-26T20:15:16.506Z,98589.06
2022-09-26T20:17:45.377Z,98582.28
2022-09-26T20:20:22.914Z,98584.09
2022-09-26T20:22:50.918Z,98572.13
2022-09-26T20:25:26.596Z,98578.13
2022-09-26T20:27:53.720Z,98579.00
2022-09-26T20:30:21.003Z,98567.22
2022-09-26T20:32:47.297Z,98567.69
2022-09-26T20:35:14.761Z,98560.34
2022-09-26T20:37:42.009Z,98566.34
2022-09-26T20:40:26.776Z,98556.84
2022-09-26T20:42:59.096Z,98563.38
2022-09-26T20:45:30.388Z,98554.16
2022-09-26T20:47:58.123Z,98545.34
2022-09-26T20:50:28.515Z,98540.81
2022-09-26T20:52:57.146Z,98544.66
2022-09-26T20:55:23.459Z,98539.03
2022-09-26T20:57:49.789Z,98532.25
2022-09-26T21:00:18.236Z,98529.09
2022-09-26T21:02:46.513Z,98533.59
2022-09-26T21:05:31.781Z,98529.28
2022-09-26T21:07:59.989Z,98522.31
2022-09-26T21:10:31.976Z,98520.94
2022-09-26T21:12:59.784Z,98520.63
2022-09-26T21:15:31.513Z,98517.56
2022-09-26T21:17:58.563Z,98512.94
2022-09-26T21:20:28.788Z,98505.38
2022-09-26T21:22:56.015Z,98506.25
2022-09-26T21:25:29.336Z,98499.94
2022-09-26T21:28:02.505Z,98504.47
2022-09-26T21:30:30.311Z,98501.78
2022-09-26T21:32:59.266Z,98502.91
2022-09-26T21:35:29.603Z,98505.47
2022-09-26T21:37:58.337Z,98496.09
2022-09-26T21:40:28.130Z,98499.53
2022-09-26T21:43:05.863Z,98498.84
2022-09-26T21:45:32.652Z,98491.97
2022-09-26T21:47:59.067Z,98493.28
2022-09-26T21:50:28.277Z,98482.44
2022-09-26T21:53:05.755Z,98491.38
2022-09-26T21:55:37.511Z,98494.09
2022-09-26T21:58:09.271Z,98493.19
2022-09-26T22:00:35.596Z,98495.00
2022-09-26T22:03:01.932Z,98484.25
2022-09-26T22:05:28.266Z,98482.44
2022-09-26T22:07:54.609Z,98478.16
2022-09-26T22:10:20.983Z,98479.06
2022-09-26T22:12:47.288Z,98469.47
2022-09-26T22:15:13.695Z,98473.50
2022-09-26T22:17:40.022Z,98467.31
2022-09-26T22:20:06.667Z,98464.94
2022-09-26T22:22:32.994Z,98453.44
2022-09-26T22:24:59.337Z,98451.97
2022-09-26T22:27:25.645Z,98452.75
2022-09-26T22:29:52.005Z,98446.41
2022-09-26T22:32:18.300Z,98445.06
2022-09-26T22:34:44.630Z,98436.03
2022-09-26T22:37:10.963Z,98437.50
2022-09-26T22:39:37.355Z,98436.50
2022-09-26T22:42:03.748Z,98435.81
2022-09-26T22:44:30.089Z,98424.06
2022-09-26T22:46:56.405Z,98428.69
2022-09-26T22:49:22.749Z,98429.25
2022-09-26T22:51:49.054Z,98428.03
2022-09-26T22:54:15.385Z,98414.13
2022-09-26T22:56:41.755Z,98415.25
2022-09-26T22:59:09.882Z,98414.94
2022-09-26T23:01:36.427Z,98417.03
2022-09-26T23:04:03.181Z,98416.59
2022-09-26T23:06:30.905Z,98413.44
2022-09-26T23:08:57.406Z,98410.72
2022-09-26T23:11:23.802Z,98412.97
2022-09-26T23:13:51.942Z,98408.69
2022-09-26T23:16:20.815Z,98396.50
2022-09-26T23:18:48.210Z,98388.69
2022-09-26T23:21:17.514Z,98393.97
2022-09-26T23:23:46.278Z,98392.19
2022-09-26T23:26:18.245Z,98391.16
2022-09-26T23:28:44.553Z,98397.16
2022-09-26T23:31:11.715Z,98386.31
2022-09-26T23:33:38.696Z,98386.09
2022-09-26T23:36:06.183Z,98382.69
2022-09-26T23:38:33.265Z,98377.25
2022-09-26T23:40:59.692Z,98377.94
2022-09-26T23:43:26.032Z,98376.34
2022-09-26T23:45:52.441Z,98367.97
2022-09-26T23:48:18.782Z,98372.53
2022-09-26T23:50:46.294Z,98371.34
2022-09-26T23:53:13.496Z,98375.88
2022-09-26T23:55:40.024Z,98369.94
2022-09-26T23:58:06.815Z,98366.31
